createdAt,value
2019-02-08T00:02:07.180Z,90.71
2019-02-08T00:04:37.220Z,91.81
2019-02-08T00:07:07.276Z,91.63
2019-02-08T00:09:37.270Z,92.05
2019-02-08T00:12:07.293Z,92.23
2019-02-08T00:14:37.246Z,92.48
2019-02-08T00:17:07.250Z,92.29
2019-02-08T00:19:37.382Z,92.57
2019-02-08T00:22:08.621Z,92.30
2019-02-08T00:24:38.582Z,91.80
2019-02-08T00:27:08.606Z,92.02
2019-02-08T00:29:38.575Z,92.46
2019-02-08T00:32:08.571Z,92.34
2019-02-08T00:34:38.545Z,92.14
2019-02-08T00:37:08.515Z,91.98
2019-02-08T00:39:38.915Z,91.79
2019-02-08T00:42:08.892Z,91.81
2019-02-08T00:44:38.902Z,91.35
2019-02-08T00:47:08.900Z,91.52
2019-02-08T00:49:38.904Z,91.78
2019-02-08T00:52:08.902Z,91.41
2019-02-08T00:54:38.893Z,91.10
2019-02-08T00:57:08.865Z,91.38
2019-02-08T00:59:38.865Z,91.31
2019-02-08T01:02:09.000Z,91.13
2019-02-08T01:04:39.175Z,91.01
2019-02-08T01:07:09.346Z,91.41
2019-02-08T01:09:39.379Z,91.39
2019-02-08T01:12:09.565Z,91.22
2019-02-08T01:14:39.591Z,90.92
2019-02-08T01:17:09.585Z,90.83
2019-02-08T01:19:39.543Z,91.05
2019-02-08T01:22:09.695Z,91.15
2019-02-08T01:24:39.729Z,91.04
2019-02-08T01:27:09.779Z,91.46
2019-02-08T01:29:39.820Z,91.52
2019-02-08T01:32:09.875Z,91.66
2019-02-08T01:34:39.941Z,91.55
2019-02-08T01:37:10.209Z,91.30
2019-02-08T01:39:40.185Z,91.64
2019-02-08T01:42:10.271Z,91.66
2019-02-08T01:44:40.282Z,91.41
2019-02-08T01:47:10.358Z,90.86
2019-02-08T01:49:40.346Z,91.44
2019-02-08T01:52:10.294Z,90.91
2019-02-08T01:54:40.313Z,91.08
2019-02-08T01:57:10.283Z,90.85
2019-02-08T01:59:40.479Z,90.78
2019-02-08T02:02:10.529Z,90.78
2019-02-08T02:04:40.619Z,90.99
2019-02-08T02:07:10.661Z,91.22
2019-02-08T02:09:40.749Z,90.74
2019-02-08T02:12:10.826Z,91.26
2019-02-08T02:14:40.893Z,91.30
2019-02-08T02:17:10.984Z,91.17
2019-02-08T02:19:41.037Z,90.93
2019-02-08T02:22:11.094Z,90.96
2019-02-08T02:24:41.214Z,91.05
2019-02-08T02:27:11.185Z,91.48
2019-02-08T02:29:41.229Z,91.44
2019-02-08T02:32:11.199Z,91.92
2019-02-08T02:34:41.281Z,91.95
2019-02-08T02:37:11.342Z,91.59
2019-02-08T02:39:41.927Z,91.64
2019-02-08T02:42:11.975Z,91.57
2019-02-08T02:44:41.939Z,91.79
2019-02-08T02:47:11.924Z,91.63
2019-02-08T02:49:41.925Z,92.08
2019-02-08T02:52:11.907Z,91.70
2019-02-08T02:54:41.880Z,91.55
2019-02-08T02:57:11.903Z,92.18
2019-02-08T02:59:41.885Z,92.25
2019-02-08T03:02:11.903Z,92.29
2019-02-08T03:04:41.991Z,92.11
2019-02-08T03:07:11.989Z,92.28
2019-02-08T03:09:42.074Z,92.02
2019-02-08T03:12:12.073Z,92.00
2019-02-08T03:14:42.165Z,92.41
2019-02-08T03:17:12.239Z,92.28
2019-02-08T03:19:42.243Z,92.36
2019-02-08T03:22:12.323Z,92.09
2019-02-08T03:24:42.311Z,92.18
2019-02-08T03:27:12.401Z,92.06
2019-02-08T03:29:42.402Z,92.21
2019-02-08T03:32:12.516Z,92.12
2019-02-08T03:34:42.542Z,91.87
2019-02-08T03:37:12.544Z,91.93
2019-02-08T03:39:42.577Z,92.47
2019-02-08T03:42:12.657Z,92.29
2019-02-08T03:44:42.628Z,92.13
2019-02-08T03:47:12.717Z,92.23
2019-02-08T03:49:42.767Z,92.01
2019-02-08T03:52:13.134Z,91.87
2019-02-08T03:54:43.493Z,91.66
2019-02-08T03:57:13.571Z,91.69
2019-02-08T03:59:43.650Z,91.69
2019-02-08T04:02:13.705Z,91.87
2019-02-08T04:04:43.754Z,91.86
2019-02-08T04:07:13.797Z,91.66
2019-02-08T04:09:43.857Z,91.68
2019-02-08T04:12:13.934Z,91.55
2019-02-08T04:14:43.984Z,91.31
2019-02-08T04:17:14.046Z,91.17
2019-02-08T04:19:44.108Z,91.46
2019-02-08T04:22:14.178Z,91.21
2019-02-08T04:24:44.121Z,91.31
2019-02-08T04:27:14.240Z,91.28
2019-02-08T04:29:44.283Z,91.13
2019-02-08T04:32:14.270Z,90.79
2019-02-08T04:34:44.278Z,91.15
2019-02-08T04:37:14.477Z,91.05
2019-02-08T04:39:44.510Z,90.87
2019-02-08T04:42:14.582Z,91.21
2019-02-08T04:44:44.670Z,90.93
2019-02-08T04:47:14.650Z,90.73
2019-02-08T04:49:44.692Z,90.61
2019-02-08T04:52:14.782Z,90.46
2019-02-08T04:54:44.854Z,90.48
2019-02-08T04:57:14.858Z,90.25
2019-02-08T04:59:45.010Z,90.19
2019-02-08T05:02:15.098Z,90.53
2019-02-08T05:04:45.153Z,90.52
2019-02-08T05:07:15.166Z,90.38
2019-02-08T05:09:45.138Z,90.20
2019-02-08T05:12:15.406Z,90.07
2019-02-08T05:14:45.463Z,90.37
2019-02-08T05:17:15.766Z,90.29
2019-02-08T05:19:45.790Z,90.25
2019-02-08T05:22:15.800Z,90.16
2019-02-08T05:24:46.216Z,90.04
2019-02-08T05:27:16.224Z,90.25
2019-02-08T05:29:46.293Z,89.78
2019-02-08T05:32:16.342Z,89.59
2019-02-08T05:34:46.338Z,89.74
2019-02-08T05:37:16.358Z,89.87
2019-02-08T05:39:46.573Z,89.43
2019-02-08T05:42:16.656Z,89.24
2019-02-08T05:44:46.772Z,89.27
2019-02-08T05:47:16.790Z,89.15
2019-02-08T05:49:46.870Z,89.09
2019-02-08T05:52:17.004Z,89.01
2019-02-08T05:54:54.237Z,89.31
2019-02-08T05:57:18.978Z,88.41
2019-02-08T05:59:48.996Z,88.24
2019-02-08T06:02:18.992Z,88.11
2019-02-08T06:04:48.958Z,88.26
2019-02-08T06:07:18.963Z,88.33
2019-02-08T06:09:49.023Z,88.43
2019-02-08T06:12:19.094Z,88.06
2019-02-08T06:14:49.149Z,87.79
2019-02-08T06:17:19.185Z,87.75
2019-02-08T06:19:49.259Z,88.04
2019-02-08T06:22:19.345Z,87.73
2019-02-08T06:24:49.402Z,87.82
2019-02-08T06:27:19.566Z,87.75
2019-02-08T06:29:49.568Z,87.70
2019-02-08T06:32:19.639Z,87.75
2019-02-08T06:34:49.641Z,88.01
2019-02-08T06:37:19.664Z,87.98
2019-02-08T06:39:49.651Z,88.14
2019-02-08T06:42:19.649Z,88.09
2019-02-08T06:44:49.748Z,88.26
2019-02-08T06:47:19.793Z,88.59
2019-02-08T06:49:49.812Z,88.48
2019-02-08T06:52:19.888Z,88.43
2019-02-08T06:54:49.899Z,88.63
2019-02-08T06:57:26.166Z,88.22
2019-02-08T07:00:07.375Z,87.79
2019-02-08T07:02:46.384Z,87.88
2019-02-08T07:05:34.117Z,87.24
2019-02-08T07:08:25.882Z,87.42
2019-02-08T07:11:14.052Z,87.10
2019-02-08T07:14:02.151Z,87.22
2019-02-08T07:16:39.270Z,87.15
2019-02-08T07:19:31.445Z,87.01
2019-02-08T07:22:23.544Z,87.46
2019-02-08T07:25:04.691Z,87.16
2019-02-08T07:27:50.463Z,87.81
2019-02-08T07:30:37.495Z,87.73
2019-02-08T07:33:26.449Z,87.72
2019-02-08T07:36:14.314Z,87.85
2019-02-08T07:39:09.353Z,87.79
2019-02-08T07:41:58.315Z,88.31
2019-02-08T07:44:43.253Z,88.51
2019-02-08T07:47:31.721Z,88.54
2019-02-08T07:50:12.790Z,88.60
2019-02-08T07:53:07.973Z,88.70
2019-02-08T07:55:47.707Z,88.83
2019-02-08T07:58:27.145Z,88.83
2019-02-08T08:01:19.673Z,88.86
2019-02-08T08:04:27.545Z,89.10
2019-02-08T08:07:19.364Z,89.30
2019-02-08T08:10:04.243Z,89.73
2019-02-08T08:12:52.453Z,89.75
2019-02-08T08:15:44.589Z,89.65
2019-02-08T08:18:32.469Z,90.03
2019-02-08T08:21:31.431Z,90.10
2019-02-08T08:24:23.685Z,90.56
2019-02-08T08:27:20.400Z,90.74
2019-02-08T08:30:00.259Z,90.87
2019-02-08T08:32:36.927Z,90.98
2019-02-08T08:35:46.755Z,91.48
2019-02-08T08:39:12.942Z,91.30
2019-02-08T08:42:15.291Z,91.45
2019-02-08T08:45:28.726Z,91.59
2019-02-08T08:48:23.773Z,91.38
2019-02-08T08:51:32.748Z,91.66
2019-02-08T08:54:41.316Z,91.65
2019-02-08T08:57:38.636Z,91.62
2019-02-08T09:00:49.050Z,91.73
2019-02-08T09:04:03.322Z,92.04
2019-02-08T09:07:16.562Z,91.84
2019-02-08T09:10:26.789Z,91.55
2019-02-08T09:13:26.669Z,91.76
2019-02-08T09:16:47.263Z,91.94
2019-02-08T09:20:10.595Z,92.24
2019-02-08T09:23:20.351Z,93.56
2019-02-08T09:26:41.601Z,94.48
2019-02-08T09:30:08.522Z,95.08
2019-02-08T09:33:16.058Z,95.83
2019-02-08T09:36:22.778Z,95.81
2019-02-08T09:39:24.013Z,95.86
2019-02-08T09:42:18.520Z,96.46
2019-02-08T09:45:36.479Z,96.89
2019-02-08T09:48:52.972Z,97.45
2019-02-08T09:52:05.840Z,97.65
2019-02-08T09:55:05.812Z,98.44
2019-02-08T09:58:08.929Z,98.04
2019-02-08T10:01:04.194Z,98.14
2019-02-08T10:04:24.363Z,97.78
2019-02-08T10:07:28.424Z,98.31
2019-02-08T10:10:24.557Z,98.37
2019-02-08T10:13:31.664Z,97.50
2019-02-08T10:16:58.022Z,98.32
2019-02-08T10:20:11.061Z,98.68
2019-02-08T10:23:37.549Z,98.79
2019-02-08T10:26:58.794Z,98.82
2019-02-08T10:30:28.568Z,99.78
2019-02-08T10:33:31.186Z,99.72
2019-02-08T10:37:01.626Z,99.85
2019-02-08T10:40:25.233Z,99.47
2019-02-08T10:43:48.848Z,98.81
2019-02-08T10:47:11.078Z,98.54
2019-02-08T10:50:27.024Z,98.80
2019-02-08T10:53:32.192Z,99.02
2019-02-08T10:56:40.125Z,98.28
2019-02-08T10:59:50.870Z,98.47
2019-02-08T11:03:04.896Z,98.26
2019-02-08T11:06:30.086Z,98.18
2019-02-08T11:09:40.512Z,97.97
2019-02-08T11:12:41.084Z,97.95
2019-02-08T11:15:55.135Z,97.72
2019-02-08T11:19:24.486Z,97.52
2019-02-08T11:21:54.878Z,97.28
2019-02-08T11:24:26.245Z,97.17
2019-02-08T11:26:58.268Z,97.21
2019-02-08T11:29:28.668Z,96.76
2019-02-08T11:31:58.663Z,96.35
2019-02-08T11:34:28.713Z,96.68
2019-02-08T11:36:58.738Z,96.54
2019-02-08T11:39:28.727Z,96.59
2019-02-08T11:41:58.810Z,96.02
2019-02-08T11:44:28.894Z,96.11
2019-02-08T11:46:58.909Z,96.33
2019-02-08T11:49:28.881Z,95.67
2019-02-08T11:51:58.936Z,95.87
2019-02-08T11:54:29.012Z,95.52
2019-02-08T11:56:59.156Z,95.51
2019-02-08T11:59:29.146Z,95.39
2019-02-08T12:01:59.102Z,95.71
2019-02-08T12:04:29.116Z,95.12
2019-02-08T12:06:59.119Z,95.47
2019-02-08T12:09:29.152Z,95.25
2019-02-08T12:11:59.208Z,94.88
2019-02-08T12:14:30.571Z,94.73
2019-02-08T12:17:00.663Z,94.71
2019-02-08T12:19:30.716Z,94.32
2019-02-08T12:22:00.735Z,94.27
2019-02-08T12:24:30.700Z,94.23
2019-02-08T12:27:00.703Z,93.73
2019-02-08T12:29:32.047Z,92.97
2019-02-08T12:32:02.021Z,92.66
2019-02-08T12:34:31.995Z,92.50
2019-02-08T12:37:02.322Z,92.40
2019-02-08T12:39:32.465Z,92.48
2019-02-08T12:42:02.920Z,90.98
2019-02-08T12:44:32.917Z,91.04
2019-02-08T12:47:02.935Z,90.99
2019-02-08T12:49:32.933Z,91.18
2019-02-08T12:52:02.971Z,90.64
2019-02-08T12:54:32.950Z,90.57
2019-02-08T12:57:04.703Z,90.81
2019-02-08T12:59:34.771Z,89.96
2019-02-08T13:02:05.069Z,89.90
2019-02-08T13:04:35.117Z,88.51
2019-02-08T13:07:05.231Z,89.27
2019-02-08T13:09:35.232Z,89.18
2019-02-08T13:12:05.622Z,89.05
2019-02-08T13:14:35.627Z,88.52
2019-02-08T13:17:05.677Z,88.46
2019-02-08T13:19:35.662Z,89.41
2019-02-08T13:22:05.799Z,87.77
2019-02-08T13:24:35.837Z,88.11
2019-02-08T13:27:05.939Z,89.15
2019-02-08T13:29:35.969Z,88.74
2019-02-08T13:32:06.478Z,88.28
2019-02-08T13:34:36.442Z,88.78
2019-02-08T13:37:06.444Z,88.25
2019-02-08T13:39:36.432Z,87.92
2019-02-08T13:42:06.530Z,87.82
2019-02-08T13:44:36.538Z,87.94
2019-02-08T13:47:06.648Z,87.82
2019-02-08T13:49:36.706Z,88.21
2019-02-08T13:52:07.009Z,88.44
2019-02-08T13:54:37.073Z,88.63
2019-02-08T13:57:07.073Z,88.39
2019-02-08T13:59:37.137Z,87.67
2019-02-08T14:02:07.247Z,88.27
2019-02-08T14:04:37.241Z,88.53
2019-02-08T14:07:07.287Z,88.31
2019-02-08T14:09:37.424Z,87.95
2019-02-08T14:12:07.406Z,88.14
2019-02-08T14:14:37.431Z,87.99
2019-02-08T14:17:07.527Z,87.52
2019-02-08T14:19:38.014Z,87.50
2019-02-08T14:22:08.097Z,87.80
2019-02-08T14:24:38.215Z,87.53
2019-02-08T14:27:08.843Z,87.76
2019-02-08T14:29:38.901Z,87.72
2019-02-08T14:32:08.936Z,87.21
2019-02-08T14:34:43.606Z,87.61
2019-02-08T14:37:10.777Z,87.70
2019-02-08T14:39:40.785Z,87.03
2019-02-08T14:42:10.810Z,87.51
2019-02-08T14:44:41.274Z,87.30
2019-02-08T14:47:11.302Z,86.44
2019-02-08T14:49:41.281Z,86.91
2019-02-08T14:52:11.345Z,87.01
2019-02-08T14:54:41.414Z,86.94
2019-02-08T14:57:16.569Z,86.46
2019-02-08T14:59:43.215Z,86.70
2019-02-08T15:02:13.222Z,85.92
2019-02-08T15:04:43.250Z,86.57
2019-02-08T15:07:13.271Z,86.57
2019-02-08T15:09:43.270Z,86.50
2019-02-08T15:12:13.286Z,86.35
2019-02-08T15:14:43.306Z,86.94
2019-02-08T15:17:13.334Z,86.23
2019-02-08T15:19:43.472Z,86.36
2019-02-08T15:22:13.460Z,86.32
2019-02-08T15:24:43.540Z,86.35
2019-02-08T15:27:13.570Z,86.36
2019-02-08T15:29:43.592Z,86.24
2019-02-08T15:32:13.593Z,86.57
2019-02-08T15:34:43.659Z,86.95
2019-02-08T15:37:13.663Z,86.43
2019-02-08T15:39:43.690Z,86.19
2019-02-08T15:42:13.686Z,86.66
2019-02-08T15:44:43.774Z,86.62
2019-02-08T15:47:13.782Z,86.82
2019-02-08T15:49:43.816Z,86.61
2019-02-08T15:52:13.813Z,86.42
2019-02-08T15:54:45.067Z,86.24
2019-02-08T15:57:15.053Z,86.50
2019-02-08T15:59:47.582Z,86.61
2019-02-08T16:02:17.606Z,86.67
2019-02-08T16:04:47.630Z,86.51
2019-02-08T16:07:17.642Z,86.57
2019-02-08T16:09:47.675Z,86.68
2019-02-08T16:12:17.694Z,86.65
2019-02-08T16:14:47.698Z,86.51
2019-02-08T16:17:17.745Z,86.46
2019-02-08T16:19:47.737Z,86.35
2019-02-08T16:22:17.774Z,86.35
2019-02-08T16:24:47.754Z,86.03
2019-02-08T16:27:17.767Z,86.40
2019-02-08T16:29:47.779Z,86.00
2019-02-08T16:32:17.807Z,86.31
2019-02-08T16:34:47.797Z,86.40
2019-02-08T16:37:17.810Z,86.24
2019-02-08T16:39:47.832Z,86.65
2019-02-08T16:42:17.847Z,86.43
2019-02-08T16:44:47.937Z,86.78
2019-02-08T16:47:17.940Z,87.01
2019-02-08T16:49:47.947Z,87.27
2019-02-08T16:52:17.941Z,87.39
2019-02-08T16:54:48.703Z,87.30
2019-02-08T16:57:18.709Z,87.10
2019-02-08T16:59:48.728Z,87.21
2019-02-08T17:02:18.718Z,86.99
2019-02-08T17:04:49.103Z,86.98
2019-02-08T17:07:19.079Z,87.07
2019-02-08T17:09:49.079Z,86.80
2019-02-08T17:12:19.266Z,86.79
2019-02-08T17:14:49.569Z,86.71
2019-02-08T17:17:19.589Z,86.48
2019-02-08T17:19:49.614Z,86.44
2019-02-08T17:22:37.555Z,86.85
2019-02-08T17:25:39.187Z,87.50
2019-02-08T17:28:13.140Z,87.55
2019-02-08T17:30:47.580Z,87.88
2019-02-08T17:33:21.895Z,88.06
2019-02-08T17:35:56.127Z,88.03
2019-02-08T17:38:30.429Z,87.55
2019-02-08T17:41:06.197Z,87.41
2019-02-08T17:43:41.096Z,87.42
2019-02-08T17:46:11.568Z,87.20
2019-02-08T17:48:41.569Z,86.94
2019-02-08T17:51:11.553Z,86.73
2019-02-08T17:53:41.580Z,87.28
2019-02-08T17:56:11.557Z,87.10
2019-02-08T17:58:41.580Z,86.83
2019-02-08T18:01:11.559Z,86.77
2019-02-08T18:03:41.577Z,86.85
2019-02-08T18:06:12.561Z,86.74
2019-02-08T18:08:42.564Z,86.70
2019-02-08T18:11:12.580Z,86.59
2019-02-08T18:13:42.603Z,86.68
2019-02-08T18:16:12.605Z,86.95
2019-02-08T18:18:42.604Z,86.61
2019-02-08T18:21:12.923Z,86.71
2019-02-08T18:23:42.937Z,87.01
2019-02-08T18:26:12.945Z,87.23
2019-02-08T18:28:43.267Z,87.21
2019-02-08T18:31:13.314Z,87.14
2019-02-08T18:33:43.331Z,87.36
2019-02-08T18:36:13.355Z,86.98
2019-02-08T18:38:43.448Z,87.18
2019-02-08T18:41:13.536Z,87.04
2019-02-08T18:43:43.530Z,86.97
2019-02-08T18:46:13.580Z,86.97
2019-02-08T18:48:43.598Z,86.81
2019-02-08T18:51:13.673Z,87.06
2019-02-08T18:53:43.716Z,86.83
2019-02-08T18:56:13.721Z,86.73
2019-02-08T18:58:43.740Z,86.94
2019-02-08T19:01:13.785Z,87.07
2019-02-08T19:03:43.791Z,87.08
2019-02-08T19:06:13.939Z,86.83
2019-02-08T19:08:43.951Z,86.90
2019-02-08T19:11:14.393Z,86.83
2019-02-08T19:13:47.395Z,87.05
2019-02-08T19:16:17.432Z,86.78
2019-02-08T19:18:47.447Z,86.63
2019-02-08T19:21:17.498Z,86.67
2019-02-08T19:23:47.546Z,87.14
2019-02-08T19:26:17.885Z,86.69
2019-02-08T19:28:47.930Z,86.89
2019-02-08T19:31:18.040Z,86.83
2019-02-08T19:33:48.079Z,87.08
2019-02-08T19:36:18.171Z,86.89
2019-02-08T19:38:48.159Z,86.60
2019-02-08T19:41:18.283Z,86.51
2019-02-08T19:43:48.292Z,86.58
2019-02-08T19:46:18.425Z,86.54
2019-02-08T19:48:48.460Z,86.70
2019-02-08T19:51:18.467Z,86.84
2019-02-08T19:53:48.466Z,86.78
2019-02-08T19:56:18.523Z,86.92
2019-02-08T19:58:48.520Z,86.52
2019-02-08T20:01:18.586Z,86.73
2019-02-08T20:03:48.597Z,86.68
2019-02-08T20:06:18.616Z,86.86
2019-02-08T20:08:48.662Z,86.60
2019-02-08T20:11:18.668Z,86.55
2019-02-08T20:13:48.716Z,86.39
2019-02-08T20:16:18.788Z,86.16
2019-02-08T20:18:48.831Z,86.62
2019-02-08T20:21:18.932Z,86.52
2019-02-08T20:23:49.042Z,86.36
2019-02-08T20:26:19.107Z,86.21
2019-02-08T20:28:49.129Z,86.25
2019-02-08T20:31:20.726Z,86.18
2019-02-08T20:33:50.766Z,86.32
2019-02-08T20:36:20.770Z,86.36
2019-02-08T20:38:50.810Z,86.25
2019-02-08T20:41:20.848Z,86.35
2019-02-08T20:43:50.923Z,86.37
2019-02-08T20:46:20.916Z,86.43
2019-02-08T20:48:50.968Z,86.44
2019-02-08T20:51:20.978Z,86.02
2019-02-08T20:53:51.024Z,86.21
2019-02-08T20:56:21.114Z,86.21
2019-02-08T20:58:51.111Z,85.90
2019-02-08T21:01:21.156Z,86.13
2019-02-08T21:03:51.188Z,86.30
2019-02-08T21:06:21.333Z,86.12
2019-02-08T21:08:51.360Z,86.19
2019-02-08T21:11:22.119Z,86.23
2019-02-08T21:13:52.231Z,86.35
2019-02-08T21:16:22.229Z,85.77
2019-02-08T21:18:52.248Z,85.61
2019-02-08T21:21:22.280Z,85.65
2019-02-08T21:23:52.533Z,85.60
2019-02-08T21:26:22.536Z,85.56
2019-02-08T21:28:58.033Z,85.38
2019-02-08T21:31:24.222Z,85.64
2019-02-08T21:33:54.333Z,85.54
2019-02-08T21:36:24.434Z,85.78
2019-02-08T21:38:54.452Z,85.58
2019-02-08T21:41:24.523Z,85.23
2019-02-08T21:43:54.559Z,85.60
2019-02-08T21:46:24.600Z,85.22
2019-02-08T21:48:54.596Z,85.10
2019-02-08T21:51:24.671Z,85.16
2019-02-08T21:53:54.693Z,85.29
2019-02-08T21:56:24.728Z,85.20
2019-02-08T21:58:54.761Z,85.07
2019-02-08T22:01:24.764Z,85.25
2019-02-08T22:03:54.743Z,85.23
2019-02-08T22:06:24.732Z,85.19
2019-02-08T22:08:54.800Z,85.23
2019-02-08T22:11:24.895Z,84.93
2019-02-08T22:13:54.963Z,85.20
2019-02-08T22:16:24.980Z,85.27
2019-02-08T22:18:55.015Z,85.09
2019-02-08T22:21:25.001Z,84.88
2019-02-08T22:23:54.994Z,85.06
2019-02-08T22:26:24.996Z,85.01
2019-02-08T22:28:54.986Z,85.30
2019-02-08T22:31:24.998Z,85.12
2019-02-08T22:33:55.046Z,85.06
2019-02-08T22:36:25.067Z,84.90
2019-02-08T22:38:55.182Z,84.77
2019-02-08T22:41:25.247Z,84.96
2019-02-08T22:43:55.325Z,84.80
2019-02-08T22:46:25.392Z,84.77
2019-02-08T22:48:55.487Z,84.94
2019-02-08T22:51:25.549Z,84.86
2019-02-08T22:53:55.810Z,84.61
2019-02-08T22:56:25.914Z,85.04
2019-02-08T22:58:55.992Z,84.96
2019-02-08T23:01:32.414Z,84.77
2019-02-08T23:04:03.594Z,84.95
2019-02-08T23:06:33.644Z,84.77
2019-02-08T23:09:05.392Z,84.46
2019-02-08T23:11:35.519Z,84.99
2019-02-08T23:14:05.739Z,84.75
2019-02-08T23:16:35.822Z,84.44
2019-02-08T23:19:06.579Z,84.70
2019-02-08T23:21:36.626Z,84.68
2019-02-08T23:24:06.884Z,84.38
2019-02-08T23:26:44.671Z,84.51
2019-02-08T23:29:29.707Z,84.44
2019-02-08T23:31:59.596Z,84.12
2019-02-08T23:34:29.794Z,84.35
2019-02-08T23:37:00.072Z,84.22
2019-02-08T23:39:31.673Z,84.01
2019-02-08T23:42:01.770Z,84.25
2019-02-08T23:44:32.131Z,84.01
2019-02-08T23:47:02.920Z,84.01
2019-02-08T23:49:33.784Z,84.02
2019-02-08T23:52:03.827Z,83.86
2019-02-08T23:54:33.885Z,84.03
2019-02-08T23:57:04.044Z,83.97
2019-02-08T23:59:38.192Z,83.85
